sensor_id;sensor_type;location;lat;lon;timestamp;pressure;altitude;pressure_sealevel;temperature;humidity
37238;BME280;23129;49.662;8.448;2023-07-20T00:00:01;100462.00;;;20.78;54.16
37238;BME280;23129;49.662;8.448;2023-07-20T00:02:50;100458.63;;;20.76;54.23
37238;BME280;23129;49.662;8.448;2023-07-20T00:05:20;100458.72;;;20.74;54.25
37238;BME280;23129;49.662;8.448;2023-07-20T00:07:52;100457.09;;;20.72;54.27
37238;BME280;23129;49.662;8.448;2023-07-20T00:10:21;100459.03;;;20.70;54.32
37238;BME280;23129;49.662;8.448;2023-07-20T00:12:49;100461.91;;;20.67;54.50
37238;BME280;23129;49.662;8.448;2023-07-20T00:15:18;100456.91;;;20.62;54.65
37238;BME280;23129;49.662;8.448;2023-07-20T00:17:47;100461.47;;;20.60;54.78
37238;BME280;23129;49.662;8.448;2023-07-20T00:20:16;100460.97;;;20.55;54.90
37238;BME280;23129;49.662;8.448;2023-07-20T00:22:46;100459.38;;;20.52;54.73
37238;BME280;23129;49.662;8.448;2023-07-20T00:25:15;100461.25;;;20.50;54.76
37238;BME280;23129;49.662;8.448;2023-07-20T00:27:43;100466.88;;;20.46;54.97
37238;BME280;23129;49.662;8.448;2023-07-20T00:30:13;100471.69;;;20.41;55.11
37238;BME280;23129;49.662;8.448;2023-07-20T00:32:43;100469.53;;;20.33;55.24
37238;BME280;23129;49.662;8.448;2023-07-20T00:35:12;100461.19;;;20.25;55.32
37238;BME280;23129;49.662;8.448;2023-07-20T00:37:41;100465.88;;;20.21;55.64
37238;BME280;23129;49.662;8.448;2023-07-20T00:40:11;100463.75;;;20.14;55.66
37238;BME280;23129;49.662;8.448;2023-07-20T00:42:40;100467.13;;;20.03;55.93
37238;BME280;23129;49.662;8.448;2023-07-20T00:45:08;100466.06;;;19.93;56.16
37238;BME280;23129;49.662;8.448;2023-07-20T00:47:37;100464.94;;;19.82;56.72
37238;BME280;23129;49.662;8.448;2023-07-20T00:50:07;100470.03;;;19.73;56.81
37238;BME280;23129;49.662;8.448;2023-07-20T00:52:36;100474.22;;;19.63;56.79
37238;BME280;23129;49.662;8.448;2023-07-20T00:55:08;100467.56;;;19.55;57.19
37238;BME280;23129;49.662;8.448;2023-07-20T00:57:39;100473.28;;;19.49;57.32
37238;BME280;23129;49.662;8.448;2023-07-20T01:00:08;100471.78;;;19.45;57.50
37238;BME280;23129;49.662;8.448;2023-07-20T01:02:37;100475.59;;;19.41;57.56
37238;BME280;23129;49.662;8.448;2023-07-20T01:05:07;100477.50;;;19.39;57.65
37238;BME280;23129;49.662;8.448;2023-07-20T01:07:39;100479.59;;;19.34;57.47
37238;BME280;23129;49.662;8.448;2023-07-20T01:10:15;100473.91;;;19.26;57.95
37238;BME280;23129;49.662;8.448;2023-07-20T01:12:50;100473.56;;;19.18;57.97
37238;BME280;23129;49.662;8.448;2023-07-20T01:15:20;100471.44;;;19.08;58.54
37238;BME280;23129;49.662;8.448;2023-07-20T01:17:49;100474.69;;;18.99;58.76
37238;BME280;23129;49.662;8.448;2023-07-20T01:20:20;100476.81;;;18.94;59.01
37238;BME280;23129;49.662;8.448;2023-07-20T01:23:07;100473.66;;;18.87;59.24
37238;BME280;23129;49.662;8.448;2023-07-20T01:25:58;100474.81;;;18.83;59.14
37238;BME280;23129;49.662;8.448;2023-07-20T01:28:48;100474.34;;;18.77;59.13
37238;BME280;23129;49.662;8.448;2023-07-20T01:31:25;100482.50;;;18.74;59.54
37238;BME280;23129;49.662;8.448;2023-07-20T01:33:56;100475.59;;;18.69;59.59
37238;BME280;23129;49.662;8.448;2023-07-20T01:36:30;100478.44;;;18.66;59.42
37238;BME280;23129;49.662;8.448;2023-07-20T01:39:01;100482.25;;;18.62;59.49
37238;BME280;23129;49.662;8.448;2023-07-20T01:41:32;100483.41;;;18.58;59.78
37238;BME280;23129;49.662;8.448;2023-07-20T01:44:03;100475.81;;;18.52;59.63
37238;BME280;23129;49.662;8.448;2023-07-20T01:46:32;100481.47;;;18.46;59.93
37238;BME280;23129;49.662;8.448;2023-07-20T01:49:02;100488.88;;;18.41;60.27
37238;BME280;23129;49.662;8.448;2023-07-20T01:51:31;100476.91;;;18.34;60.10
37238;BME280;23129;49.662;8.448;2023-07-20T01:54:00;100481.63;;;18.29;60.37
37238;BME280;23129;49.662;8.448;2023-07-20T01:56:30;100475.72;;;18.23;60.50
37238;BME280;23129;49.662;8.448;2023-07-20T01:58:59;100476.88;;;18.19;60.60
37238;BME280;23129;49.662;8.448;2023-07-20T02:01:28;100479.59;;;18.18;60.67
37238;BME280;23129;49.662;8.448;2023-07-20T02:03:58;100481.41;;;18.17;60.61
37238;BME280;23129;49.662;8.448;2023-07-20T02:06:30;100478.75;;;18.17;60.96
37238;BME280;23129;49.662;8.448;2023-07-20T02:08:58;100477.06;;;18.16;60.91
37238;BME280;23129;49.662;8.448;2023-07-20T02:11:27;100477.91;;;18.17;60.95
37238;BME280;23129;49.662;8.448;2023-07-20T02:13:56;100481.41;;;18.17;61.10
37238;BME280;23129;49.662;8.448;2023-07-20T02:16:25;100479.88;;;18.13;61.12
37238;BME280;23129;49.662;8.448;2023-07-20T02:18:53;100480.06;;;18.10;61.32
37238;BME280;23129;49.662;8.448;2023-07-20T02:21:25;100474.94;;;18.07;61.41
37238;BME280;23129;49.662;8.448;2023-07-20T02:23:54;100474.16;;;18.05;61.38
37238;BME280;23129;49.662;8.448;2023-07-20T02:26:22;100484.00;;;18.03;61.31
37238;BME280;23129;49.662;8.448;2023-07-20T02:28:51;100491.41;;;17.98;61.34
37238;BME280;23129;49.662;8.448;2023-07-20T02:31:20;100483.75;;;17.92;61.67
37238;BME280;23129;49.662;8.448;2023-07-20T02:33:48;100486.78;;;17.86;62.09
37238;BME280;23129;49.662;8.448;2023-07-20T02:36:17;100480.13;;;17.78;61.91
37238;BME280;23129;49.662;8.448;2023-07-20T02:38:47;100485.75;;;17.72;62.18
37238;BME280;23129;49.662;8.448;2023-07-20T02:41:16;100486.94;;;17.67;62.31
37238;BME280;23129;49.662;8.448;2023-07-20T02:43:45;100481.81;;;17.64;62.31
37238;BME280;23129;49.662;8.448;2023-07-20T02:46:13;100489.00;;;17.62;62.33
37238;BME280;23129;49.662;8.448;2023-07-20T02:48:42;100481.13;;;17.60;62.57
37238;BME280;23129;49.662;8.448;2023-07-20T02:51:12;100488.31;;;17.58;62.66
37238;BME280;23129;49.662;8.448;2023-07-20T02:53:40;100486.63;;;17.57;62.65
37238;BME280;23129;49.662;8.448;2023-07-20T02:56:10;100489.34;;;17.55;62.68
37238;BME280;23129;49.662;8.448;2023-07-20T02:58:41;100482.44;;;17.53;62.89
37238;BME280;23129;49.662;8.448;2023-07-20T03:01:13;100493.97;;;17.52;63.01
37238;BME280;23129;49.662;8.448;2023-07-20T03:03:43;100486.00;;;17.52;63.17
37238;BME280;23129;49.662;8.448;2023-07-20T03:06:14;100490.53;;;17.50;63.28
37238;BME280;23129;49.662;8.448;2023-07-20T03:08:43;100486.19;;;17.49;63.14
37238;BME280;23129;49.662;8.448;2023-07-20T03:11:16;100492.44;;;17.48;63.37
37238;BME280;23129;49.662;8.448;2023-07-20T03:13:45;100483.72;;;17.46;63.40
37238;BME280;23129;49.662;8.448;2023-07-20T03:16:18;100490.88;;;17.44;63.63
37238;BME280;23129;49.662;8.448;2023-07-20T03:18:48;100484.91;;;17.40;63.74
37238;BME280;23129;49.662;8.448;2023-07-20T03:21:17;100488.66;;;17.36;63.85
37238;BME280;23129;49.662;8.448;2023-07-20T03:23:46;100488.00;;;17.32;63.92
37238;BME280;23129;49.662;8.448;2023-07-20T03:26:16;100488.16;;;17.29;64.06
37238;BME280;23129;49.662;8.448;2023-07-20T03:28:44;100494.50;;;17.27;64.19
37238;BME280;23129;49.662;8.448;2023-07-20T03:31:13;100496.34;;;17.25;64.14
37238;BME280;23129;49.662;8.448;2023-07-20T03:33:43;100501.81;;;17.22;64.29
37238;BME280;23129;49.662;8.448;2023-07-20T03:36:11;100503.69;;;17.20;64.42
37238;BME280;23129;49.662;8.448;2023-07-20T03:38:40;100504.81;;;17.16;64.91
37238;BME280;23129;49.662;8.448;2023-07-20T03:41:09;100519.06;;;17.13;64.89
37238;BME280;23129;49.662;8.448;2023-07-20T03:43:40;100505.94;;;17.11;65.17
37238;BME280;23129;49.662;8.448;2023-07-20T03:46:09;100518.41;;;17.09;65.07
37238;BME280;23129;49.662;8.448;2023-07-20T03:48:38;100515.97;;;17.05;65.30
37238;BME280;23129;49.662;8.448;2023-07-20T03:51:07;100519.75;;;17.01;65.60
37238;BME280;23129;49.662;8.448;2023-07-20T03:53:35;100516.47;;;16.96;65.58
37238;BME280;23129;49.662;8.448;2023-07-20T03:56:04;100522.94;;;16.90;66.14
37238;BME280;23129;49.662;8.448;2023-07-20T03:58:33;100518.84;;;16.84;66.21
37238;BME280;23129;49.662;8.448;2023-07-20T04:01:03;100507.69;;;16.78;66.36
37238;BME280;23129;49.662;8.448;2023-07-20T04:03:32;100518.69;;;16.70;67.00
37238;BME280;23129;49.662;8.448;2023-07-20T04:06:01;100519.00;;;16.64;67.33
37238;BME280;23129;49.662;8.448;2023-07-20T04:08:29;100514.94;;;16.57;67.49
37238;BME280;23129;49.662;8.448;2023-07-20T04:11:00;100516.84;;;16.55;67.60
37238;BME280;23129;49.662;8.448;2023-07-20T04:13:29;100516.16;;;16.51;67.93
37238;BME280;23129;49.662;8.448;2023-07-20T04:16:03;100511.91;;;16.47;68.26
37238;BME280;23129;49.662;8.448;2023-07-20T04:18:32;100517.31;;;16.46;68.22
37238;BME280;23129;49.662;8.448;2023-07-20T04:21:00;100518.22;;;16.44;68.56
37238;BME280;23129;49.662;8.448;2023-07-20T04:23:29;100513.88;;;16.43;68.80
37238;BME280;23129;49.662;8.448;2023-07-20T04:25:58;100515.72;;;16.41;69.25
37238;BME280;23129;49.662;8.448;2023-07-20T04:28:26;100514.88;;;16.41;69.24
37238;BME280;23129;49.662;8.448;2023-07-20T04:30:55;100522.91;;;16.39;69.43
37238;BME280;23129;49.662;8.448;2023-07-20T04:33:39;100524.78;;;16.37;69.49
37238;BME280;23129;49.662;8.448;2023-07-20T04:36:08;100524.78;;;16.37;69.80
37238;BME280;23129;49.662;8.448;2023-07-20T04:38:36;100527.34;;;16.39;69.85
37238;BME280;23129;49.662;8.448;2023-07-20T04:41:19;100529.06;;;16.40;69.93
37238;BME280;23129;49.662;8.448;2023-07-20T04:43:50;100531.63;;;16.41;69.95
37238;BME280;23129;49.662;8.448;2023-07-20T04:46:29;100526.16;;;16.44;70.12
37238;BME280;23129;49.662;8.448;2023-07-20T04:49:02;100531.25;;;16.49;69.99
37238;BME280;23129;49.662;8.448;2023-07-20T04:51:35;100537.22;;;16.53;70.17
37238;BME280;23129;49.662;8.448;2023-07-20T04:54:04;100537.84;;;16.58;70.13
37238;BME280;23129;49.662;8.448;2023-07-20T04:56:36;100542.69;;;16.67;69.86
37238;BME280;23129;49.662;8.448;2023-07-20T04:59:07;100540.38;;;16.78;69.68
37238;BME280;23129;49.662;8.448;2023-07-20T05:01:36;100529.88;;;16.93;69.50
37238;BME280;23129;49.662;8.448;2023-07-20T05:04:06;100530.78;;;17.09;69.26
37238;BME280;23129;49.662;8.448;2023-07-20T05:06:35;100530.91;;;17.23;69.18
37238;BME280;23129;49.662;8.448;2023-07-20T05:09:06;100523.22;;;17.34;69.03
37238;BME280;23129;49.662;8.448;2023-07-20T05:11:35;100524.44;;;17.45;68.55
37238;BME280;23129;49.662;8.448;2023-07-20T05:14:03;100518.63;;;17.54;68.82
37238;BME280;23129;49.662;8.448;2023-07-20T05:16:32;100519.97;;;17.61;68.87
37238;BME280;23129;49.662;8.448;2023-07-20T05:19:06;100513.47;;;17.67;68.59
37238;BME280;23129;49.662;8.448;2023-07-20T05:21:34;100518.44;;;17.73;68.70
37238;BME280;23129;49.662;8.448;2023-07-20T05:24:04;100508.50;;;17.76;68.59
37238;BME280;23129;49.662;8.448;2023-07-20T05:26:33;100525.84;;;17.84;68.72
37238;BME280;23129;49.662;8.448;2023-07-20T05:29:01;100521.81;;;17.92;68.56
37238;BME280;23129;49.662;8.448;2023-07-20T05:31:30;100524.00;;;18.00;68.41
37238;BME280;23129;49.662;8.448;2023-07-20T05:33:59;100526.28;;;18.06;68.40
37238;BME280;23129;49.662;8.448;2023-07-20T05:36:28;100526.97;;;18.10;68.45
37238;BME280;23129;49.662;8.448;2023-07-20T05:38:58;100532.19;;;18.11;68.65
37238;BME280;23129;49.662;8.448;2023-07-20T05:41:27;100528.53;;;18.14;68.44
37238;BME280;23129;49.662;8.448;2023-07-20T05:43:55;100524.91;;;18.15;68.56
37238;BME280;23129;49.662;8.448;2023-07-20T05:46:24;100527.50;;;18.16;68.69
37238;BME280;23129;49.662;8.448;2023-07-20T05:49:00;100527.50;;;18.16;68.78
37238;BME280;23129;49.662;8.448;2023-07-20T05:51:30;100530.91;;;18.18;68.60
37238;BME280;23129;49.662;8.448;2023-07-20T05:54:02;100536.38;;;18.15;68.75
37238;BME280;23129;49.662;8.448;2023-07-20T05:56:31;100539.16;;;18.14;68.67
37238;BME280;23129;49.662;8.448;2023-07-20T05:58:59;100538.28;;;18.13;68.99
37238;BME280;23129;49.662;8.448;2023-07-20T06:01:28;100536.56;;;18.12;68.90
37238;BME280;23129;49.662;8.448;2023-07-20T06:03:57;100536.47;;;18.14;69.12
37238;BME280;23129;49.662;8.448;2023-07-20T06:06:25;100539.75;;;18.19;68.89
37238;BME280;23129;49.662;8.448;2023-07-20T06:08:55;100532.09;;;18.29;68.93
37238;BME280;23129;49.662;8.448;2023-07-20T06:11:24;100529.84;;;18.37;68.67
37238;BME280;23129;49.662;8.448;2023-07-20T06:13:52;100534.59;;;18.46;68.27
37238;BME280;23129;49.662;8.448;2023-07-20T06:16:21;100534.97;;;18.54;68.13
37238;BME280;23129;49.662;8.448;2023-07-20T06:18:50;100540.53;;;18.65;68.26
37238;BME280;23129;49.662;8.448;2023-07-20T06:21:18;100544.38;;;18.76;67.99
37238;BME280;23129;49.662;8.448;2023-07-20T06:23:47;100534.03;;;18.85;67.54
37238;BME280;23129;49.662;8.448;2023-07-20T06:26:17;100542.13;;;18.98;67.71
37238;BME280;23129;49.662;8.448;2023-07-20T06:28:47;100531.75;;;19.08;67.44
37238;BME280;23129;49.662;8.448;2023-07-20T06:31:16;100537.38;;;19.18;67.09
37238;BME280;23129;49.662;8.448;2023-07-20T06:33:44;100541.25;;;19.26;66.78
37238;BME280;23129;49.662;8.448;2023-07-20T06:36:13;100542.59;;;19.33;66.92
37238;BME280;23129;49.662;8.448;2023-07-20T06:38:41;100542.09;;;19.41;66.35
37238;BME280;23129;49.662;8.448;2023-07-20T06:41:31;100538.09;;;19.48;66.31
37238;BME280;23129;49.662;8.448;2023-07-20T06:44:03;100539.34;;;19.57;66.27
37238;BME280;23129;49.662;8.448;2023-07-20T06:46:32;100543.25;;;19.66;66.04
37238;BME280;23129;49.662;8.448;2023-07-20T06:49:01;100540.00;;;19.75;65.64
37238;BME280;23129;49.662;8.448;2023-07-20T06:51:32;100542.91;;;19.84;65.54
37238;BME280;23129;49.662;8.448;2023-07-20T06:54:02;100541.44;;;19.93;65.45
37238;BME280;23129;49.662;8.448;2023-07-20T06:56:33;100552.25;;;20.04;65.26
37238;BME280;23129;49.662;8.448;2023-07-20T06:59:02;100544.50;;;20.14;64.92
37238;BME280;23129;49.662;8.448;2023-07-20T07:01:31;100554.44;;;20.25;64.67
37238;BME280;23129;49.662;8.448;2023-07-20T07:03:59;100542.44;;;20.32;64.51
37238;BME280;23129;49.662;8.448;2023-07-20T07:06:29;100541.59;;;20.44;64.21
37238;BME280;23129;49.662;8.448;2023-07-20T07:08:57;100547.09;;;20.56;63.95
37238;BME280;23129;49.662;8.448;2023-07-20T07:11:26;100557.44;;;20.73;63.69
37238;BME280;23129;49.662;8.448;2023-07-20T07:13:56;100554.91;;;20.97;63.24
37238;BME280;23129;49.662;8.448;2023-07-20T07:16:25;100556.38;;;21.14;62.68
37238;BME280;23129;49.662;8.448;2023-07-20T07:18:54;100552.56;;;21.18;62.54
37238;BME280;23129;49.662;8.448;2023-07-20T07:21:27;100554.25;;;21.19;62.45
37238;BME280;23129;49.662;8.448;2023-07-20T07:23:55;100551.59;;;21.19;62.58
37238;BME280;23129;49.662;8.448;2023-07-20T07:26:26;100547.44;;;21.15;62.62
37238;BME280;23129;49.662;8.448;2023-07-20T07:28:56;100548.94;;;21.19;62.32
37238;BME280;23129;49.662;8.448;2023-07-20T07:31:25;100554.88;;;21.35;62.18
37238;BME280;23129;49.662;8.448;2023-07-20T07:33:54;100549.53;;;21.61;61.42
37238;BME280;23129;49.662;8.448;2023-07-20T07:36:23;100547.28;;;21.92;60.54
37238;BME280;23129;49.662;8.448;2023-07-20T07:38:51;100553.78;;;22.24;60.06
37238;BME280;23129;49.662;8.448;2023-07-20T07:41:23;100547.13;;;22.65;59.31
37238;BME280;23129;49.662;8.448;2023-07-20T07:43:52;100548.88;;;22.89;58.89
37238;BME280;23129;49.662;8.448;2023-07-20T07:46:21;100544.63;;;23.54;57.74
37238;BME280;23129;49.662;8.448;2023-07-20T07:48:51;100541.19;;;23.97;56.88
37238;BME280;23129;49.662;8.448;2023-07-20T07:51:20;100540.22;;;24.93;54.85
37238;BME280;23129;49.662;8.448;2023-07-20T07:53:49;100535.09;;;25.91;53.28
37238;BME280;23129;49.662;8.448;2023-07-20T07:56:17;100540.06;;;26.64;51.78
37238;BME280;23129;49.662;8.448;2023-07-20T07:58:51;100534.34;;;26.86;51.45
37238;BME280;23129;49.662;8.448;2023-07-20T08:01:21;100542.63;;;26.36;52.63
37238;BME280;23129;49.662;8.448;2023-07-20T08:03:50;100541.75;;;26.07;53.45
37238;BME280;23129;49.662;8.448;2023-07-20T08:06:18;100542.69;;;25.77;53.39
37238;BME280;23129;49.662;8.448;2023-07-20T08:08:48;100544.00;;;26.11;52.78
37238;BME280;23129;49.662;8.448;2023-07-20T08:11:16;100534.97;;;26.61;51.47
37238;BME280;23129;49.662;8.448;2023-07-20T08:13:45;100534.66;;;26.83;50.82
37238;BME280;23129;49.662;8.448;2023-07-20T08:16:14;100542.91;;;26.33;51.35
37238;BME280;23129;49.662;8.448;2023-07-20T08:18:44;100547.69;;;26.20;51.57
37238;BME280;23129;49.662;8.448;2023-07-20T08:21:13;100533.25;;;26.02;51.57
37238;BME280;23129;49.662;8.448;2023-07-20T08:23:41;100544.53;;;25.76;52.10
37238;BME280;23129;49.662;8.448;2023-07-20T08:26:10;100538.91;;;26.08;51.30
37238;BME280;23129;49.662;8.448;2023-07-20T08:28:39;100531.56;;;26.59;50.12
37238;BME280;23129;49.662;8.448;2023-07-20T08:31:07;100537.53;;;26.53;50.07
37238;BME280;23129;49.662;8.448;2023-07-20T08:33:36;100536.66;;;26.23;49.96
37238;BME280;23129;49.662;8.448;2023-07-20T08:36:06;100536.84;;;26.51;49.29
37238;BME280;23129;49.662;8.448;2023-07-20T08:38:38;100526.97;;;26.89;48.12
37238;BME280;23129;49.662;8.448;2023-07-20T08:41:07;100530.28;;;27.20;47.38
37238;BME280;23129;49.662;8.448;2023-07-20T08:43:37;100531.50;;;27.63;46.48
37238;BME280;23129;49.662;8.448;2023-07-20T08:46:11;100529.09;;;27.87;45.58
37238;BME280;23129;49.662;8.448;2023-07-20T08:48:42;100528.78;;;28.08;45.02
37238;BME280;23129;49.662;8.448;2023-07-20T08:51:13;100527.69;;;28.37;44.45
37238;BME280;23129;49.662;8.448;2023-07-20T08:53:43;100526.97;;;28.71;43.92
37238;BME280;23129;49.662;8.448;2023-07-20T08:56:14;100522.81;;;29.10;43.12
37238;BME280;23129;49.662;8.448;2023-07-20T08:58:44;100529.94;;;29.11;42.64
37238;BME280;23129;49.662;8.448;2023-07-20T09:01:14;100525.56;;;29.19;42.47
37238;BME280;23129;49.662;8.448;2023-07-20T09:03:45;100529.16;;;29.27;41.99
37238;BME280;23129;49.662;8.448;2023-07-20T09:06:15;100529.03;;;29.37;42.01
37238;BME280;23129;49.662;8.448;2023-07-20T09:08:44;100527.81;;;29.66;41.40
37238;BME280;23129;49.662;8.448;2023-07-20T09:11:13;100522.13;;;30.01;40.60
37238;BME280;23129;49.662;8.448;2023-07-20T09:13:42;100525.53;;;30.20;40.43
37238;BME280;23129;49.662;8.448;2023-07-20T09:16:13;100529.28;;;30.27;40.00
37238;BME280;23129;49.662;8.448;2023-07-20T09:18:43;100512.00;;;30.12;39.72
37238;BME280;23129;49.662;8.448;2023-07-20T09:21:11;100515.06;;;30.17;39.78
37238;BME280;23129;49.662;8.448;2023-07-20T09:23:41;100515.75;;;30.43;38.98
37238;BME280;23129;49.662;8.448;2023-07-20T09:26:13;100516.06;;;30.57;38.78
37238;BME280;23129;49.662;8.448;2023-07-20T09:28:43;100512.03;;;30.61;38.72
37238;BME280;23129;49.662;8.448;2023-07-20T09:31:17;100511.97;;;30.77;37.88
37238;BME280;23129;49.662;8.448;2023-07-20T09:33:47;100509.06;;;31.03;37.50
37238;BME280;23129;49.662;8.448;2023-07-20T09:36:19;100505.56;;;31.42;36.90
37238;BME280;23129;49.662;8.448;2023-07-20T09:39:09;100511.31;;;31.70;36.08
37238;BME280;23129;49.662;8.448;2023-07-20T09:41:41;100512.13;;;31.79;35.61
37238;BME280;23129;49.662;8.448;2023-07-20T09:44:14;100507.69;;;31.86;35.61
37238;BME280;23129;49.662;8.448;2023-07-20T09:46:47;100501.00;;;32.20;34.94
37238;BME280;23129;49.662;8.448;2023-07-20T09:49:19;100507.78;;;32.39;34.51
37238;BME280;23129;49.662;8.448;2023-07-20T09:51:53;100501.13;;;32.64;34.46
37238;BME280;23129;49.662;8.448;2023-07-20T09:54:24;100509.72;;;32.30;34.54
37238;BME280;23129;49.662;8.448;2023-07-20T09:56:56;100507.53;;;31.79;35.29
37238;BME280;23129;49.662;8.448;2023-07-20T09:59:25;100496.94;;;31.30;35.69
37238;BME280;23129;49.662;8.448;2023-07-20T10:01:58;100499.09;;;30.96;35.77
37238;BME280;23129;49.662;8.448;2023-07-20T10:04:29;100507.19;;;31.04;35.85
37238;BME280;23129;49.662;8.448;2023-07-20T10:06:59;100492.63;;;31.05;35.20
37238;BME280;23129;49.662;8.448;2023-07-20T10:09:37;100495.66;;;31.49;34.84
37238;BME280;23129;49.662;8.448;2023-07-20T10:12:08;100493.72;;;31.66;33.93
37238;BME280;23129;49.662;8.448;2023-07-20T10:14:50;100496.25;;;31.36;33.92
37238;BME280;23129;49.662;8.448;2023-07-20T10:17:21;100486.44;;;31.27;33.99
37238;BME280;23129;49.662;8.448;2023-07-20T10:19:56;100483.28;;;31.15;34.21
37238;BME280;23129;49.662;8.448;2023-07-20T10:22:26;100476.53;;;31.51;33.46
37238;BME280;23129;49.662;8.448;2023-07-20T10:24:58;100475.34;;;31.76;33.27
37238;BME280;23129;49.662;8.448;2023-07-20T10:27:28;100471.50;;;31.94;32.60
37238;BME280;23129;49.662;8.448;2023-07-20T10:29:57;100473.94;;;32.26;32.10
37238;BME280;23129;49.662;8.448;2023-07-20T10:32:27;100471.81;;;32.74;31.18
37238;BME280;23129;49.662;8.448;2023-07-20T10:34:57;100467.59;;;32.87;31.04
37238;BME280;23129;49.662;8.448;2023-07-20T10:37:48;100470.84;;;32.53;31.18
37238;BME280;23129;49.662;8.448;2023-07-20T10:40:32;100456.78;;;32.11;31.48
37238;BME280;23129;49.662;8.448;2023-07-20T10:43:04;100460.28;;;31.97;31.64
37238;BME280;23129;49.662;8.448;2023-07-20T10:48:16;100443.63;;;31.77;31.51
37238;BME280;23129;49.662;8.448;2023-07-20T10:51:11;100447.97;;;31.86;31.80
37238;BME280;23129;49.662;8.448;2023-07-20T10:53:40;100448.13;;;32.31;30.89
37238;BME280;23129;49.662;8.448;2023-07-20T10:56:12;100438.34;;;32.59;29.84
37238;BME280;23129;49.662;8.448;2023-07-20T10:58:41;100431.03;;;32.74;29.78
37238;BME280;23129;49.662;8.448;2023-07-20T11:01:14;100431.50;;;33.08;29.08
37238;BME280;23129;49.662;8.448;2023-07-20T11:03:48;100438.38;;;33.40;28.76
37238;BME280;23129;49.662;8.448;2023-07-20T11:06:32;100432.34;;;33.08;28.42
37238;BME280;23129;49.662;8.448;2023-07-20T11:09:09;100438.28;;;33.12;28.69
37238;BME280;23129;49.662;8.448;2023-07-20T11:11:44;100435.59;;;33.33;28.64
37238;BME280;23129;49.662;8.448;2023-07-20T11:14:21;100434.88;;;32.80;28.64
37238;BME280;23129;49.662;8.448;2023-07-20T11:16:51;100436.25;;;31.86;29.69
37238;BME280;23129;49.662;8.448;2023-07-20T11:19:23;100430.25;;;31.13;30.43
37238;BME280;23129;49.662;8.448;2023-07-20T11:21:57;100436.84;;;30.63;30.83
37238;BME280;23129;49.662;8.448;2023-07-20T11:24:31;100441.97;;;30.09;31.55
37238;BME280;23129;49.662;8.448;2023-07-20T11:27:01;100438.94;;;29.71;31.76
37238;BME280;23129;49.662;8.448;2023-07-20T11:29:30;100442.25;;;29.48;31.74
37238;BME280;23129;49.662;8.448;2023-07-20T11:32:01;100444.16;;;29.05;32.37
37238;BME280;23129;49.662;8.448;2023-07-20T11:34:32;100442.25;;;28.72;32.57
37238;BME280;23129;49.662;8.448;2023-07-20T11:37:02;100441.44;;;28.45;32.97
37238;BME280;23129;49.662;8.448;2023-07-20T11:39:34;100437.56;;;28.30;32.98
37238;BME280;23129;49.662;8.448;2023-07-20T11:42:06;100440.09;;;28.05;33.26
37238;BME280;23129;49.662;8.448;2023-07-20T11:44:35;100438.34;;;27.78;33.62
37238;BME280;23129;49.662;8.448;2023-07-20T11:47:06;100437.91;;;27.55;34.07
37238;BME280;23129;49.662;8.448;2023-07-20T11:49:35;100434.22;;;27.38;34.30
37238;BME280;23129;49.662;8.448;2023-07-20T11:52:06;100440.28;;;27.22;34.82
37238;BME280;23129;49.662;8.448;2023-07-20T11:54:35;100434.47;;;27.17;34.99
37238;BME280;23129;49.662;8.448;2023-07-20T11:57:09;100435.88;;;27.21;35.01
37238;BME280;23129;49.662;8.448;2023-07-20T11:59:53;100434.34;;;27.37;34.79
37238;BME280;23129;49.662;8.448;2023-07-20T12:02:26;100422.00;;;27.62;34.62
37238;BME280;23129;49.662;8.448;2023-07-20T12:04:56;100418.09;;;27.92;34.18
37238;BME280;23129;49.662;8.448;2023-07-20T12:07:27;100407.72;;;28.05;34.10
37238;BME280;23129;49.662;8.448;2023-07-20T12:10:06;100415.25;;;28.19;33.96
37238;BME280;23129;49.662;8.448;2023-07-20T12:12:39;100412.91;;;28.77;33.54
37238;BME280;23129;49.662;8.448;2023-07-20T12:15:15;100402.72;;;29.55;32.84
37238;BME280;23129;49.662;8.448;2023-07-20T12:17:45;100392.63;;;30.31;32.24
37238;BME280;23129;49.662;8.448;2023-07-20T12:20:25;100397.63;;;31.37;31.14
37238;BME280;23129;49.662;8.448;2023-07-20T12:22:57;100390.25;;;32.30;30.10
37238;BME280;23129;49.662;8.448;2023-07-20T12:25:36;100382.19;;;33.11;29.37
37238;BME280;23129;49.662;8.448;2023-07-20T12:28:08;100384.19;;;33.02;29.69
37238;BME280;23129;49.662;8.448;2023-07-20T12:30:37;100379.66;;;32.58;30.06
37238;BME280;23129;49.662;8.448;2023-07-20T12:33:06;100379.47;;;32.07;31.08
37238;BME280;23129;49.662;8.448;2023-07-20T12:35:35;100395.19;;;31.51;31.30
37238;BME280;23129;49.662;8.448;2023-07-20T12:38:04;100386.19;;;31.19;31.79
37238;BME280;23129;49.662;8.448;2023-07-20T12:40:35;100385.66;;;30.92;31.77
37238;BME280;23129;49.662;8.448;2023-07-20T12:43:04;100390.13;;;30.69;31.74
37238;BME280;23129;49.662;8.448;2023-07-20T12:45:35;100385.84;;;30.27;32.24
37238;BME280;23129;49.662;8.448;2023-07-20T12:48:04;100384.50;;;29.90;32.53
37238;BME280;23129;49.662;8.448;2023-07-20T12:50:33;100384.88;;;29.71;32.67
37238;BME280;23129;49.662;8.448;2023-07-20T12:53:02;100386.16;;;29.42;32.60
37238;BME280;23129;49.662;8.448;2023-07-20T12:55:31;100388.47;;;29.21;33.14
37238;BME280;23129;49.662;8.448;2023-07-20T12:58:00;100378.16;;;29.08;32.88
37238;BME280;23129;49.662;8.448;2023-07-20T13:00:29;100377.13;;;29.09;32.77
37238;BME280;23129;49.662;8.448;2023-07-20T13:02:59;100361.94;;;29.16;32.57
37238;BME280;23129;49.662;8.448;2023-07-20T13:05:32;100363.22;;;30.03;31.86
37238;BME280;23129;49.662;8.448;2023-07-20T13:08:05;100361.00;;;31.10;30.40
37238;BME280;23129;49.662;8.448;2023-07-20T13:10:36;100353.75;;;32.18;29.42